Nagoya Airport, Japan

9:41 PM JST on June 30, 2015 (GMT +0900)
Nagoya / Chubu | | Change Station
CLOSE
Current Station
Airport
Location: Nagoya / Chubu,
Elevation: 16 ft
Nearby Weather Stations

Elev 16 ft 34.86 °N, 136.81 °E | Updated 1 hour ago

Light Rain
Light Rain
70 °F
Feels Like 70 °F
N
8
Wind Variable Wind from SE

Today
High -- | Low -- °F
--% Chance of Precip.
Yesterday
High -- | Low -- °F
Precip. -- in
4:40 AM 7:10 PM
Waxing Gibbous, 97% visible
Pressure 29.59 in
Visibility 4.3 miles
Clouds Few 500 ft
Mostly Cloudy 4000 ft
Mostly Cloudy 5000 ft
Dew Point 66 °F
Humidity 88%
Rainfall 0.00 in
Snow Depth Not available.
UV 0 out of 12
Pollen Not available.
Air Quality Not available.
Flu Activity Not available.
METAR RJGG 301130Z 14007KT 7000 -RA FEW005 BKN040 BKN050 21/19 Q1002 NOSIG

More Conditions Fewer Conditions

Pressure 29.59 in
Visibility 4.3 miles
Clouds Few 500 ft
Mostly Cloudy 4000 ft
Mostly Cloudy 5000 ft
Dew Point 66 °F
Humidity 88%
Rainfall 0.00 in
Snow Depth Not available.
UV 0 out of 12
Pollen Not available.
Air Quality Not available.
Flu Activity Not available.
METAR RJGG 301130Z 14007KT 7000 -RA FEW005 BKN040 BKN050 21/19 Q1002 NOSIG

More Conditions Fewer Conditions

10-Day Weather Forecast

×

Almanac

Astronomy

Jun. 30, 2015 Rise Set
Actual Time
Civil Twilight
Nautical Twilight
Astronomical Twilight
Moon
Length of Visible Light
Length of Day
Tomorrow will be .
, % of the Moon is Illuminated

Today's Extremes

Country Highs Country Lows

Community

WunderPhotos

Upload Photos

1,833,986 photos uploaded!

WunderBlogs® & News

Nearby

Air Quality

  Air Quality AQ Index Pollutant
Not available.

Snow Depth

Station Depth Elevation

Earthquake Activity

City Distance Mag. Time & Date
Minimum magnitude displayed is 2.5.

Coastal Water Temperatures

Place Temperature

Stations

Nearby Weather Stations

Station Location Temp. Windchill Dew Point Humidity Wind Precip. Elev Updated Type